Time;durP1;ratioP1;P1;durP2;ratioP2;P2;SDS_P1;SDS_P2;PMS_P1;PMS_P2;Temp;Humidity;BMP_temperature;BMP_pressure;BME280_temperature;BME280_humidity;BME280_pressure;Samples;Min_cycle;Max_cycle;Signal;HPM_P1;HPM_P2
2020/12/23 00:01:13;;;;;;;38.00;19.15;;;;;;;5.95;87.46;97585.03;5007803;28;20048;-61
2020/12/23 00:03:38;;;;;;;43.47;19.13;;;;;;;6.15;88.31;97633.84;5006224;28;20072;-62
2020/12/23 00:06:03;;;;;;;37.63;18.65;;;;;;;6.30;88.03;97679.28;5008354;28;20100;-62
2020/12/23 00:08:29;;;;;;;35.90;18.58;;;;;;;5.98;86.86;97606.38;5008179;28;20025;-61
2020/12/23 00:10:56;;;;;;;37.22;19.27;;;;;;;6.49;87.37;97676.97;5008010;28;20897;-62
2020/12/23 00:13:21;;;;;;;40.58;19.58;;;;;;;6.45;87.24;97687.81;5007866;28;20571;-62
2020/12/23 00:15:47;;;;;;;44.15;20.80;;;;;;;6.47;87.68;97696.56;5007883;28;20038;-61
2020/12/23 00:18:13;;;;;;;41.90;20.63;;;;;;;6.44;87.13;97752.25;5007850;28;20080;-62
2020/12/23 00:20:38;;;;;;;44.75;20.13;;;;;;;6.44;87.47;97702.72;5006100;28;20124;-61
2020/12/23 00:23:03;;;;;;;48.58;22.45;;;;;;;6.39;88.09;97689.13;5006303;28;20034;-61
2020/12/23 00:25:29;;;;;;;45.80;21.48;;;;;;;6.39;88.68;97705.63;5007399;28;20100;-62
2020/12/23 00:27:54;;;;;;;46.78;23.05;;;;;;;6.09;87.43;97657.16;5006259;28;20050;-61
2020/12/23 00:30:20;;;;;;;49.20;22.42;;;;;;;6.52;86.67;97707.38;5005631;28;20594;-62
2020/12/23 00:32:46;;;;;;;51.58;22.75;;;;;;;6.52;86.13;97712.88;5007544;28;20632;-61
2020/12/23 00:35:12;;;;;;;52.95;23.33;;;;;;;6.42;87.28;97702.22;5007260;28;20132;-62
2020/12/23 00:37:37;;;;;;;51.47;24.10;;;;;;;6.43;88.22;97695.59;5005713;28;20080;-62
2020/12/23 00:40:04;;;;;;;57.45;25.20;;;;;;;6.11;88.45;97632.88;5005859;28;20168;-62
2020/12/23 00:42:29;;;;;;;57.75;26.90;;;;;;;5.72;88.20;97587.16;5007056;28;20033;-62
2020/12/23 00:44:57;;;;;;;62.50;24.55;;;;;;;6.42;88.15;97693.97;5007425;28;20048;-62
2020/12/23 00:47:23;;;;;;;52.58;24.40;;;;;;;6.55;87.57;97692.16;5005498;28;20501;-62
2020/12/23 00:49:48;;;;;;;57.10;25.10;;;;;;;6.48;87.59;97687.16;5005511;28;20045;-61
2020/12/23 00:52:14;;;;;;;55.20;24.40;;;;;;;5.29;87.00;97505.94;5006949;28;20056;-62
2020/12/23 00:54:39;;;;;;;54.95;23.85;;;;;;;6.51;87.02;97691.19;5007056;28;20129;-63
2020/12/23 00:57:04;;;;;;;48.00;23.08;;;;;;;6.51;87.06;97686.53;5007061;28;20037;-62
2020/12/23 00:59:30;;;;;;;79.55;39.05;;;;;;;6.44;88.19;97686.19;5006157;28;20473;-61
2020/12/23 01:01:57;;;;;;;58.55;26.73;;;;;;;6.41;88.79;97675.84;5005417;28;20033;-62
2020/12/23 01:04:23;;;;;;;61.45;26.65;;;;;;;6.41;88.58;97675.03;5007078;28;20060;-63
2020/12/23 01:06:48;;;;;;;61.92;26.88;;;;;;;5.88;88.96;97590.25;5005110;28;20564;-61
2020/12/23 01:09:13;;;;;;;65.20;27.42;;;;;;;6.35;90.21;97666.16;5001988;28;20037;-62
2020/12/23 01:11:39;;;;;;;65.65;29.10;;;;;;;5.16;90.49;97517.88;4985841;28;20414;-63
2020/12/23 01:14:04;;;;;;;73.15;31.33;;;;;;;6.30;91.17;97658.09;4986976;28;20038;-62
2020/12/23 01:16:30;;;;;;;69.82;30.58;;;;;;;6.23;90.94;97660.50;4985254;28;20313;-62
2020/12/23 01:18:55;;;;;;;73.35;30.48;;;;;;;5.93;91.63;97604.63;4985245;28;20508;-62
2020/12/23 01:21:21;;;;;;;68.05;28.58;;;;;;;6.18;91.67;97656.00;4985254;28;20038;-62
2020/12/23 01:23:46;;;;;;;76.68;28.02;;;;;;;6.24;91.17;97637.38;4986616;28;20097;-62
2020/12/23 01:26:11;;;;;;;69.38;27.98;;;;;;;5.61;91.63;97549.34;5001643;28;20037;-62
2020/12/23 01:28:37;;;;;;;66.47;28.30;;;;;;;6.07;92.41;97609.91;4986754;28;20034;-63
2020/12/23 01:31:06;;;;;;;63.13;27.63;;;;;;;6.18;92.14;97645.00;4985170;28;20481;-62
2020/12/23 01:33:32;;;;;;;69.90;28.52;;;;;;;6.19;92.67;97612.81;4986384;28;20177;-61
2020/12/23 01:35:57;;;;;;;64.95;28.77;;;;;;;5.34;92.76;97503.81;4986629;28;20034;-61
2020/12/23 01:38:23;;;;;;;66.68;28.75;;;;;;;5.39;92.70;97494.63;4986830;28;20042;-61
2020/12/23 01:40:55;;;;;;;69.85;30.10;;;;;;;5.77;92.57;97572.44;5001255;28;20041;-62
2020/12/23 01:43:21;;;;;;;66.68;29.10;;;;;;;6.15;92.01;97620.09;4986575;28;20069;-61
2020/12/23 01:45:46;;;;;;;70.57;30.83;;;;;;;5.58;92.26;97525.28;4984821;28;20034;-62
2020/12/23 01:48:17;;;;;;;72.15;28.55;;;;;;;5.69;93.29;97565.03;4986258;28;20038;-61
2020/12/23 01:50:44;;;;;;;75.15;31.65;;;;;;;5.88;95.09;97591.03;4986612;28;20030;-61
2020/12/23 01:53:10;;;;;;;74.45;32.80;;;;;;;5.99;94.57;97597.00;4984887;28;20033;-61
2020/12/23 01:55:36;;;;;;;66.93;27.75;;;;;;;5.48;95.29;97525.63;5001993;28;20112;-63
2020/12/23 01:58:02;;;;;;;76.47;29.48;;;;;;;6.03;94.43;97597.97;5005847;28;20525;-63
2020/12/23 02:00:27;;;;;;;66.28;28.50;;;;;;;5.86;94.77;97590.53;5004134;28;20046;-62
2020/12/23 02:02:58;;;;;;;70.03;27.95;;;;;;;5.69;98.00;97614.50;5005532;28;20060;-62
2020/12/23 02:05:24;;;;;;;63.33;27.20;;;;;;;5.84;96.79;97605.75;5005374;28;20108;-62
2020/12/23 02:07:50;;;;;;;58.38;24.58;;;;;;;5.89;96.80;97594.59;5005289;28;20426;-63
2020/12/23 02:10:15;;;;;;;59.53;25.33;;;;;;;5.92;97.10;97599.44;5005146;28;20042;-63
2020/12/23 02:12:41;;;;;;;122.95;65.32;;;;;;;4.88;96.59;97445.25;5005897;28;20045;-62
2020/12/23 02:15:08;;;;;;;92.38;40.95;;;;;;;6.03;95.96;97586.97;5004900;28;20041;-62
2020/12/23 02:17:34;;;;;;;62.08;29.15;;;;;;;6.06;95.49;97608.31;5005163;28;20030;-62
2020/12/23 02:19:59;;;;;;;77.32;35.15;;;;;;;5.86;94.77;97584.25;5005643;28;20473;-62
2020/12/23 02:22:31;;;;;;;55.47;23.13;;;;;;;5.11;98.51;97545.50;5003739;28;20041;-64
2020/12/23 02:24:57;;;;;;;55.90;23.90;;;;;;;5.31;100.00;97569.59;5003978;28;20038;-62
2020/12/23 02:27:24;;;;;;;73.03;28.40;;;;;;;5.68;98.94;97596.38;5005096;28;20087;-63
2020/12/23 02:29:52;;;;;;;56.28;24.13;;;;;;;5.73;98.03;97587.97;5003945;28;20030;-62
2020/12/23 02:32:18;;;;;;;64.25;24.23;;;;;;;5.74;97.37;97567.59;5003362;28;20061;-63
2020/12/23 02:34:44;;;;;;;59.58;24.00;;;;;;;5.83;96.77;97584.91;5005444;28;20080;-61
2020/12/23 02:37:11;;;;;;;74.13;30.92;;;;;;;5.44;96.90;97524.63;5005282;28;20033;-62
2020/12/23 02:39:38;;;;;;;80.05;31.50;;;;;;;5.74;97.22;97562.91;5003747;28;20070;-61
2020/12/23 02:42:05;;;;;;;71.97;28.50;;;;;;;5.83;97.60;97598.66;5003581;28;20041;-64
2020/12/23 02:44:31;;;;;;;67.30;27.77;;;;;;;4.96;97.37;97448.00;5003355;28;20419;-61
2020/12/23 02:47:02;;;;;;;69.18;28.48;;;;;;;4.89;97.64;97417.47;5003244;28;20033;-62
2020/12/23 02:49:28;;;;;;;74.65;31.10;;;;;;;5.84;98.40;97578.28;5002927;28;20084;-63
2020/12/23 02:51:54;;;;;;;73.20;30.85;;;;;;;5.42;98.50;97515.94;5003083;28;20484;-61
2020/12/23 02:54:20;;;;;;;72.03;32.42;;;;;;;5.88;97.95;97573.75;5003172;28;20513;-62
2020/12/23 02:56:46;;;;;;;60.40;26.45;;;;;;;5.93;96.52;97576.31;5003054;28;20058;-61
2020/12/23 02:59:12;;;;;;;75.78;31.15;;;;;;;5.84;96.92;97572.78;5004756;28;20049;-61
2020/12/23 03:01:38;;;;;;;66.35;27.83;;;;;;;5.76;98.01;97566.13;5004600;28;20109;-62
2020/12/23 03:04:04;;;;;;;60.38;25.83;;;;;;;4.19;97.59;97370.34;5004758;28;20097;-61
2020/12/23 03:06:30;;;;;;;52.65;23.35;;;;;;;5.57;97.94;97551.13;5004388;28;20030;-62
2020/12/23 03:08:56;;;;;;;57.88;24.83;;;;;;;4.99;98.01;97468.47;5004710;28;20271;-61
2020/12/23 03:11:22;;;;;;;59.60;24.73;;;;;;;5.40;98.65;97515.44;5004468;28;20452;-63
2020/12/23 03:13:47;;;;;;;58.67;24.67;;;;;;;5.09;98.42;97462.66;5005096;28;20029;-62
2020/12/23 03:16:13;;;;;;;67.93;28.25;;;;;;;5.37;98.74;97576.53;5004641;28;20036;-63
2020/12/23 03:18:39;;;;;;;69.38;28.23;;;;;;;5.80;97.58;97578.06;5003652;28;20631;-61
2020/12/23 03:21:08;;;;;;;65.68;27.92;;;;;;;5.72;97.41;97567.13;5004497;28;20525;-62
2020/12/23 03:23:34;;;;;;;71.65;29.90;;;;;;;5.36;97.36;97489.78;5007468;28;20033;-62
2020/12/23 03:26:00;;;;;;;77.65;31.17;;;;;;;4.96;98.43;97436.19;5008913;28;20037;-62
2020/12/23 03:28:26;;;;;;;61.05;27.20;;;;;;;5.76;98.42;97570.81;5007277;28;20471;-61
2020/12/23 03:30:51;;;;;;;68.60;28.27;;;;;;;5.80;97.91;97571.78;5006809;28;20428;-63
2020/12/23 03:33:17;;;;;;;65.65;27.13;;;;;;;5.78;97.02;97558.38;5008232;28;20056;-62
2020/12/23 03:35:42;;;;;;;68.88;29.75;;;;;;;5.81;96.44;97589.88;5006780;28;20041;-62
2020/12/23 03:38:08;;;;;;;65.10;28.13;;;;;;;5.22;97.48;97487.19;5006844;28;20026;-62
2020/12/23 03:40:33;;;;;;;61.13;30.02;;;;;;;5.78;98.12;97568.56;5008203;28;20513;-62
2020/12/23 03:42:59;;;;;;;68.35;28.40;;;;;;;5.04;96.93;97438.13;5006652;28;20029;-63
2020/12/23 03:45:24;;;;;;;60.75;28.42;;;;;;;5.86;96.99;97570.50;5006338;28;20530;-62
2020/12/23 03:47:50;;;;;;;70.00;28.65;;;;;;;5.81;97.06;97576.97;5006588;28;20030;-61
2020/12/23 03:50:15;;;;;;;69.63;28.38;;;;;;;5.11;96.98;97449.41;5008411;28;20034;-61
2020/12/23 03:52:40;;;;;;;69.47;29.20;;;;;;;5.86;96.25;97565.81;5008461;28;20430;-63
2020/12/23 03:55:07;;;;;;;68.88;29.75;;;;;;;5.08;96.36;97458.28;5007987;28;20164;-61
2020/12/23 03:57:33;;;;;;;68.40;28.85;;;;;;;5.90;96.76;97598.94;5008106;28;20508;-62
2020/12/23 03:59:58;;;;;;;73.80;30.73;;;;;;;4.80;98.84;97454.28;5006657;28;20041;-62
2020/12/23 04:02:23;;;;;;;70.57;32.75;;;;;;;5.65;99.57;97583.28;5006727;28;20168;-62
2020/12/23 04:04:49;;;;;;;71.03;31.42;;;;;;;5.50;100.00;97583.81;5008081;28;20041;-61
2020/12/23 04:07:14;;;;;;;73.88;28.88;;;;;;;5.61;100.00;97585.09;5008234;28;20045;-61
2020/12/23 04:09:40;;;;;;;75.50;30.45;;;;;;;5.62;100.00;97556.47;5008189;28;20120;-62
2020/12/23 04:12:05;;;;;;;80.05;34.70;;;;;;;5.71;100.00;97590.22;5006301;28;20030;-63
2020/12/23 04:14:30;;;;;;;78.80;32.92;;;;;;;5.70;100.00;97583.94;5007590;28;20030;-63
2020/12/23 04:16:56;;;;;;;184.30;87.35;;;;;;;5.64;100.00;97565.19;5006040;28;20058;-62
2020/12/23 04:19:21;;;;;;;100.70;44.33;;;;;;;5.73;100.00;97554.97;5005951;28;20050;-62
2020/12/23 04:21:47;;;;;;;61.85;27.00;;;;;;;5.81;100.00;97567.91;5006038;28;20079;-62
2020/12/23 04:24:12;;;;;;;75.00;32.30;;;;;;;5.69;100.00;97582.31;5007317;28;20848;-62
2020/12/23 04:26:37;;;;;;;64.22;27.17;;;;;;;5.76;99.07;97543.34;5007492;28;20539;-62
2020/12/23 04:29:03;;;;;;;51.80;23.35;;;;;;;5.72;98.45;97564.38;5006081;28;20516;-62
2020/12/23 04:31:29;;;;;;;57.83;23.63;;;;;;;5.55;97.97;97536.91;5007437;28;20065;-62
2020/12/23 04:33:54;;;;;;;55.42;25.58;;;;;;;4.79;99.91;97447.19;5007334;28;20030;-63
2020/12/23 04:36:20;;;;;;;59.10;26.80;;;;;;;5.39;100.00;97533.06;5005895;28;20047;-63
2020/12/23 04:38:45;;;;;;;61.50;28.23;;;;;;;5.57;100.00;97573.09;5007685;28;20026;-62
2020/12/23 04:41:11;;;;;;;65.38;29.27;;;;;;;4.97;100.00;97564.06;5007577;28;20485;-62
2020/12/23 04:43:37;;;;;;;60.15;28.15;;;;;;;5.16;100.00;97570.06;5005773;28;20042;-63
2020/12/23 04:46:02;;;;;;;60.92;25.05;;;;;;;4.75;100.00;97484.63;5007060;28;20671;-63
2020/12/23 04:48:32;;;;;;;69.50;34.10;;;;;;;5.45;100.00;97572.97;5007518;28;20044;-62
2020/12/23 04:51:02;;;;;;;61.35;27.38;;;;;;;5.52;100.00;97595.25;5005864;28;20520;-62
2020/12/23 04:53:27;;;;;;;54.00;25.17;;;;;;;5.55;100.00;97583.59;5005809;28;20482;-62
2020/12/23 04:55:53;;;;;;;47.13;22.52;;;;;;;4.63;100.00;97417.47;5006964;28;20113;-62
2020/12/23 04:58:18;;;;;;;53.35;24.30;;;;;;;5.70;99.17;97596.88;5005729;28;20026;-62
2020/12/23 05:00:44;;;;;;;58.80;26.02;;;;;;;5.36;100.00;97561.19;5006875;28;20083;-62
2020/12/23 05:03:09;;;;;;;58.35;25.40;;;;;;;5.40;100.00;97567.63;5005282;28;20057;-61
2020/12/23 05:05:34;;;;;;;64.55;27.42;;;;;;;5.62;100.00;97586.69;5006965;28;20037;-62
2020/12/23 05:08:00;;;;;;;71.70;31.00;;;;;;;5.50;100.00;97567.31;5005467;28;20033;-63
2020/12/23 05:10:29;;;;;;;70.07;28.48;;;;;;;4.98;99.61;97481.38;5006584;28;20413;-62
2020/12/23 05:12:56;;;;;;;67.45;29.40;;;;;;;5.54;100.00;97582.00;5001991;28;20041;-62
2020/12/23 05:15:22;;;;;;;78.03;31.35;;;;;;;5.64;100.00;97573.44;4986877;28;20540;-63
2020/12/23 05:17:52;;;;;;;72.25;30.73;;;;;;;5.04;99.96;97465.56;4987102;28;20023;-62
2020/12/23 05:20:18;;;;;;;95.63;40.85;;;;;;;5.21;98.29;97488.34;4985197;28;20475;-63
2020/12/23 05:22:49;;;;;;;77.43;32.58;;;;;;;5.53;100.00;97577.66;4987006;28;20062;-62
2020/12/23 05:25:16;;;;;;;76.88;34.00;;;;;;;5.50;100.00;97559.06;4986921;28;20553;-62
2020/12/23 05:27:42;;;;;;;85.35;33.97;;;;;;;5.65;100.00;97558.56;4987053;28;20034;-64
2020/12/23 05:30:10;;;;;;;100.72;40.97;;;;;;;5.21;100.00;97471.03;4986722;28;20038;-64
2020/12/23 05:32:40;;;;;;;117.28;47.67;;;;;;;5.89;99.71;97586.34;4986825;28;20215;-62
2020/12/23 05:35:06;;;;;;;143.18;59.42;;;;;;;5.73;99.19;97546.75;4986863;28;20548;-61
2020/12/23 05:37:32;;;;;;;84.55;37.22;;;;;;;5.95;98.99;97596.03;4987186;28;20038;-62
2020/12/23 05:39:59;;;;;;;95.95;38.97;;;;;;;5.59;100.00;97568.09;5001713;28;20140;-61
2020/12/23 05:42:26;;;;;;;75.18;33.80;;;;;;;5.41;99.65;97503.31;5001468;28;20472;-63
2020/12/23 05:44:54;;;;;;;87.03;36.55;;;;;;;5.88;100.00;97568.25;4986038;28;20506;-62
2020/12/23 05:47:24;;;;;;;95.80;40.33;;;;;;;5.92;99.75;97580.19;4986541;28;20105;-62
2020/12/23 05:49:51;;;;;;;74.05;33.58;;;;;;;5.42;100.00;97581.88;4986693;28;20030;-61
2020/12/23 05:52:24;;;;;;;86.45;32.95;;;;;;;5.60;100.00;97580.69;4986273;28;20129;-62
2020/12/23 05:54:53;;;;;;;76.33;32.13;;;;;;;5.56;100.00;97602.53;4994895;28;20068;-63
2020/12/23 05:57:19;;;;;;;77.43;30.70;;;;;;;5.50;100.00;97611.28;5005948;28;20022;-63
2020/12/23 05:59:45;;;;;;;77.53;30.67;;;;;;;2.29;100.00;97084.00;5004458;28;20125;-62
2020/12/23 06:02:14;;;;;;;84.72;35.75;;;;;;;5.61;100.00;97590.56;5005827;28;20057;-62
2020/12/23 06:04:44;;;;;;;78.88;31.80;;;;;;;5.49;100.00;97604.16;4993841;28;20034;-63
2020/12/23 06:07:10;;;;;;;82.97;30.25;;;;;;;5.62;100.00;97603.16;4986192;28;20513;-62
2020/12/23 06:09:38;;;;;;;82.68;29.17;;;;;;;5.62;100.00;97598.50;4985997;28;20038;-62
2020/12/23 06:12:16;;;;;;;76.55;33.03;;;;;;;5.65;100.00;97591.53;4985797;28;20046;-61
2020/12/23 06:14:50;;;;;;;77.22;30.58;;;;;;;5.74;100.00;97595.88;4985906;28;20037;-61
2020/12/23 06:17:19;;;;;;;88.78;30.58;;;;;;;5.76;100.00;97609.28;4986392;28;20073;-61
2020/12/23 06:19:48;;;;;;;80.70;29.70;;;;;;;5.25;100.00;97521.44;5000978;28;20417;-62
2020/12/23 06:22:14;;;;;;;80.78;29.48;;;;;;;5.70;100.00;97599.63;5000888;28;20444;-62
2020/12/23 06:24:40;;;;;;;96.40;38.42;;;;;;;5.19;100.00;97489.78;5001038;28;20046;-62
2020/12/23 06:27:09;;;;;;;94.10;38.22;;;;;;;5.77;100.00;97611.72;5000785;28;20034;-62
2020/12/23 06:29:37;;;;;;;79.68;31.33;;;;;;;5.66;100.00;97601.38;4984494;28;20073;-62
2020/12/23 06:32:30;;;;;;;89.13;31.90;;;;;;;2.23;100.00;97025.16;4983943;28;20038;-62
2020/12/23 06:35:00;;;;;;;90.63;33.93;;;;;;;5.85;100.00;97594.44;4989876;28;20073;-61
2020/12/23 06:37:29;;;;;;;99.45;41.25;;;;;;;5.19;100.00;97522.72;5000547;28;20037;-62
2020/12/23 06:39:55;;;;;;;82.00;33.28;;;;;;;5.75;100.00;97654.41;5000098;28;20045;-63
2020/12/23 06:42:21;;;;;;;86.70;35.08;;;;;;;6.05;100.00;97601.19;4991395;28;20042;-61
2020/12/23 06:45:00;;;;;;;66.80;27.83;;;;;;;5.97;99.23;97610.28;5004351;28;20037;-60
2020/12/23 06:47:30;;;;;;;80.25;31.27;;;;;;;5.35;100.00;97571.34;5005149;28;20574;-59
2020/12/23 06:49:58;;;;;;;86.55;33.63;;;;;;;5.09;100.00;97556.00;5004674;28;20037;-59
2020/12/23 06:52:23;;;;;;;114.75;52.97;;;;;;;5.96;100.00;97616.88;5004969;28;20053;-62
2020/12/23 06:54:55;;;;;;;93.50;40.65;;;;;;;5.92;100.00;97618.69;5004471;28;20034;-62
2020/12/23 06:57:39;;;;;;;90.90;38.97;;;;;;;5.93;100.00;97620.28;5003577;28;20516;-60
2020/12/23 07:00:11;;;;;;;80.45;33.60;;;;;;;5.75;100.00;97624.97;5005066;28;20575;-61
2020/12/23 07:03:04;;;;;;;87.78;34.33;;;;;;;5.96;100.00;97620.47;5003567;28;20080;-61
2020/12/23 07:05:40;;;;;;;82.30;39.15;;;;;;;6.05;100.00;97623.19;5000169;28;20085;-60
2020/12/23 07:08:14;;;;;;;97.15;41.13;;;;;;;6.03;100.00;97626.28;4984934;28;20640;-62
2020/12/23 07:10:42;;;;;;;90.63;40.90;;;;;;;5.60;100.00;97591.69;5002787;28;20033;-64
2020/12/23 07:13:15;;;;;;;92.13;43.55;;;;;;;6.30;100.00;97625.06;5002207;28;20053;-61
2020/12/23 07:15:53;;;;;;;90.43;40.90;;;;;;;6.12;100.00;97590.47;5004838;28;20096;-59
2020/12/23 07:18:27;;;;;;;95.53;41.45;;;;;;;6.08;99.10;97584.84;5004013;28;20066;-60
2020/12/23 07:21:05;;;;;;;110.97;50.38;;;;;;;5.23;99.54;97441.31;5004607;28;20117;-63
2020/12/23 07:23:33;;;;;;;117.85;53.65;;;;;;;6.48;98.06;97626.59;4999607;28;20042;-62
2020/12/23 07:26:02;;;;;;;112.57;49.35;;;;;;;6.57;97.98;97635.66;4997983;28;20068;-59
2020/12/23 07:28:31;;;;;;;103.38;46.20;;;;;;;6.63;97.65;97628.81;5003842;28;20030;-61
2020/12/23 07:30:59;;;;;;;105.75;45.97;;;;;;;6.66;96.45;97627.34;5002649;28;20034;-60
2020/12/23 07:33:25;;;;;;;96.53;41.70;;;;;;;6.62;96.41;97643.75;5004229;28;20064;-63
2020/12/23 07:35:54;;;;;;;74.55;30.70;;;;;;;6.03;99.72;97633.72;5004730;28;20107;-62
2020/12/23 07:38:21;;;;;;;76.97;32.83;;;;;;;6.26;100.00;97629.59;5002971;28;20034;-62
2020/12/23 07:40:47;;;;;;;69.72;31.58;;;;;;;6.45;98.68;97638.28;5004757;28;20038;-63
2020/12/23 07:43:14;;;;;;;74.15;29.33;;;;;;;6.07;99.86;97615.41;5003802;28;20099;-62
2020/12/23 07:45:40;;;;;;;60.40;26.02;;;;;;;5.83;100.00;97642.66;5004912;28;20045;-63
2020/12/23 07:48:06;;;;;;;82.05;29.92;;;;;;;5.72;100.00;97646.81;5004841;28;20029;-62
2020/12/23 07:50:43;;;;;;;75.15;30.42;;;;;;;6.03;100.00;97636.47;5004419;28;20038;-63
2020/12/23 07:53:20;;;;;;;70.82;29.95;;;;;;;5.67;100.00;97542.56;5003533;28;20100;-63
2020/12/23 07:55:50;;;;;;;70.82;27.67;;;;;;;5.94;100.00;97588.94;5004106;28;20057;-62
2020/12/23 07:58:16;;;;;;;65.78;25.90;;;;;;;6.16;100.00;97638.22;5000510;28;20042;-62
2020/12/23 08:00:46;;;;;;;89.72;35.85;;;;;;;6.40;100.00;97634.91;4999469;28;20053;-62
2020/12/23 08:03:13;;;;;;;74.25;30.33;;;;;;;6.01;100.00;97647.78;4982820;28;20042;-62
2020/12/23 08:05:39;;;;;;;79.05;29.85;;;;;;;5.70;100.00;97638.91;4988194;28;20042;-63
2020/12/23 08:08:08;;;;;;;82.68;32.80;;;;;;;6.04;100.00;97649.06;5004830;28;20173;-63
2020/12/23 08:10:34;;;;;;;75.57;33.00;;;;;;;5.96;100.00;97581.16;5007000;28;20109;-66
2020/12/23 08:13:02;;;;;;;71.25;30.23;;;;;;;6.43;99.93;97624.06;5007194;28;20065;-61
2020/12/23 08:15:28;;;;;;;74.40;31.50;;;;;;;6.10;98.15;97573.53;5005618;28;20040;-61
2020/12/23 08:18:05;;;;;;;72.15;31.60;;;;;;;6.24;100.00;97637.38;4998712;28;20497;-67
2020/12/23 08:20:32;;;;;;;83.97;35.20;;;;;;;6.58;100.00;97640.00;5005564;28;20026;-65
2020/12/23 08:22:59;;;;;;;75.07;34.08;;;;;;;6.84;100.00;97634.41;5007788;28;20037;-64
2020/12/23 08:25:25;;;;;;;66.38;30.63;;;;;;;6.75;97.87;97645.44;5002672;28;20034;-61
2020/12/23 08:27:53;;;;;;;62.97;27.42;;;;;;;6.53;96.70;97607.16;4988474;28;20027;-61
2020/12/23 08:30:22;;;;;;;67.97;30.08;;;;;;;6.42;99.67;97638.16;4987960;28;20030;-61
2020/12/23 08:33:16;;;;;;;72.63;31.05;;;;;;;6.55;99.43;97626.91;5005866;28;20030;-61
2020/12/23 08:35:46;;;;;;;68.03;28.48;;;;;;;6.01;100.00;97579.03;5007967;28;20080;-62
2020/12/23 08:38:24;;;;;;;71.90;31.40;;;;;;;5.98;99.64;97529.38;5006931;28;20116;-63
2020/12/23 08:40:55;;;;;;;72.80;31.80;;;;;;;6.37;98.14;97597.84;5007125;28;20038;-62
2020/12/23 08:43:23;;;;;;;67.03;31.33;;;;;;;6.33;95.47;97511.63;5005973;28;20338;-61
2020/12/23 08:45:50;;;;;;;80.55;36.45;;;;;;;5.07;95.04;97272.75;5006876;28;20521;-63
2020/12/23 08:48:22;;;;;;;80.57;38.58;;;;;;;6.37;94.55;97498.78;5007062;28;20420;-68
2020/12/23 08:50:58;;;;;;;82.05;38.65;;;;;;;7.05;96.88;97619.53;5003825;28;20038;-62
2020/12/23 08:53:32;;;;;;;88.47;39.22;;;;;;;7.32;94.36;97602.50;5006169;28;20061;-64
2020/12/23 08:55:59;;;;;;;84.45;38.80;;;;;;;7.54;92.67;97593.88;5005344;28;20068;-62
2020/12/23 08:58:25;;;;;;;98.03;49.63;;;;;;;6.49;91.72;97457.63;5006955;28;20026;-68
2020/12/23 09:00:58;;;;;;;96.45;48.22;;;;;;;7.27;93.01;97627.47;5006692;28;20061;-65
2020/12/23 09:03:25;;;;;;;105.38;52.60;;;;;;;7.54;93.23;97604.09;5005012;28;20076;-65
2020/12/23 09:05:50;;;;;;;118.60;58.78;;;;;;;7.58;91.71;97600.34;5007033;28;20113;-63
2020/12/23 09:08:16;;;;;;;103.18;49.60;;;;;;;7.77;90.94;97602.59;5006133;28;20103;-64
2020/12/23 09:10:52;;;;;;;96.35;46.78;;;;;;;7.37;91.96;97554.63;5003259;28;20045;-65
2020/12/23 09:13:17;;;;;;;86.38;41.95;;;;;;;7.60;92.67;97595.28;4993701;28;20033;-62
2020/12/23 09:15:52;;;;;;;95.97;44.47;;;;;;;7.55;92.84;97594.69;5005938;28;20100;-63
2020/12/23 09:18:17;;;;;;;98.60;48.05;;;;;;;7.37;93.40;97609.75;5006717;28;20064;-62
2020/12/23 09:20:43;;;;;;;82.22;38.72;;;;;;;7.53;96.22;97592.28;5005638;28;20080;-62
2020/12/23 09:23:09;;;;;;;76.07;37.35;;;;;;;7.58;95.83;97583.81;5006389;28;20030;-63
2020/12/23 09:25:37;;;;;;;79.80;37.05;;;;;;;7.14;98.99;97578.97;5006816;28;20124;-63
2020/12/23 09:28:13;;;;;;;84.35;39.10;;;;;;;7.17;99.70;97534.22;5006493;28;20072;-63
2020/12/23 09:30:42;;;;;;;100.65;45.72;;;;;;;7.60;97.81;97575.19;5006630;28;20041;-63
2020/12/23 09:33:19;;;;;;;132.48;62.72;;;;;;;7.48;97.32;97534.59;5004717;28;20121;-64
2020/12/23 09:35:46;;;;;;;218.13;94.88;;;;;;;8.06;96.18;97555.56;5004811;28;20069;-64
2020/12/23 09:38:18;;;;;;;415.20;193.43;;;;;;;8.24;94.75;97561.72;5006087;28;20398;-64
2020/12/23 09:40:55;;;;;;;77.63;36.42;;;;;;;8.26;91.54;97559.44;5006283;28;20583;-63
2020/12/23 09:43:23;;;;;;;58.70;27.63;;;;;;;7.90;94.29;97562.09;5006183;28;20053;-63
2020/12/23 09:45:51;;;;;;;105.88;50.95;;;;;;;8.16;96.39;97557.88;5004455;28;20041;-63
2020/12/23 09:48:18;;;;;;;80.25;33.45;;;;;;;8.14;93.50;97537.31;5006257;28;20025;-63
2020/12/23 09:50:44;;;;;;;77.32;38.80;;;;;;;8.47;92.93;97543.59;5006304;28;20544;-63
2020/12/23 09:53:11;;;;;;;65.20;30.25;;;;;;;8.24;93.65;97534.94;5005901;28;20124;-62
2020/12/23 09:55:43;;;;;;;62.97;29.55;;;;;;;8.40;93.75;97527.59;4989999;28;20482;-63
2020/12/23 09:58:10;;;;;;;56.80;28.13;;;;;;;8.32;92.98;97541.50;5002452;28;20033;-64
2020/12/23 10:00:36;;;;;;;62.45;28.63;;;;;;;8.74;91.75;97526.34;5006025;28;20064;-63
2020/12/23 10:03:01;;;;;;;64.38;28.92;;;;;;;9.03;90.66;97523.28;5004482;28;20481;-64
2020/12/23 10:05:27;;;;;;;52.42;25.98;;;;;;;9.21;87.77;97530.16;5005957;28;20040;-64
2020/12/23 10:07:53;;;;;;;54.85;26.85;;;;;;;9.29;86.59;97532.00;5006040;28;20096;-64
2020/12/23 10:10:19;;;;;;;56.30;25.92;;;;;;;9.19;88.44;97538.00;5001869;28;20062;-65
2020/12/23 10:12:44;;;;;;;51.10;23.92;;;;;;;9.15;86.84;97537.88;4986532;28;20038;-64
2020/12/23 10:15:10;;;;;;;52.70;24.38;;;;;;;8.88;89.75;97493.63;4985994;28;20576;-64
2020/12/23 10:17:36;;;;;;;51.15;26.08;;;;;;;9.72;88.39;97490.53;4984650;28;20220;-64
2020/12/23 10:20:04;;;;;;;54.28;27.67;;;;;;;10.38;82.89;97502.63;4986432;28;20071;-64
2020/12/23 10:22:29;;;;;;;45.67;22.52;;;;;;;10.50;83.13;97505.28;4986059;28;20042;-64
2020/12/23 10:24:55;;;;;;;41.15;21.15;;;;;;;10.20;81.64;97451.53;4985928;28;20045;-62
2020/12/23 10:27:20;;;;;;;39.25;22.00;;;;;;;9.88;83.95;97460.94;4985668;28;20474;-63
2020/12/23 10:29:46;;;;;;;46.25;23.77;;;;;;;10.31;86.85;97502.44;4985689;28;20049;-64
2020/12/23 10:32:11;;;;;;;43.45;21.60;;;;;;;10.34;84.15;97507.25;4999019;28;20445;-63
2020/12/23 10:34:36;;;;;;;53.90;26.83;;;;;;;9.85;84.48;97416.56;5003616;28;20046;-64
2020/12/23 10:37:02;;;;;;;43.60;19.92;;;;;;;9.54;86.14;97500.31;5003535;28;20030;-63
2020/12/23 10:39:28;;;;;;;43.05;21.58;;;;;;;9.45;89.10;97491.38;5004898;28;20052;-63
2020/12/23 10:41:54;;;;;;;42.58;20.45;;;;;;;10.06;84.35;97500.97;5005504;28;20030;-62
2020/12/23 10:44:21;;;;;;;34.88;20.02;;;;;;;10.38;84.57;97502.63;5005241;28;20547;-63
2020/12/23 10:46:51;;;;;;;30.17;16.50;;;;;;;8.29;85.87;97302.09;5003260;28;20125;-63
2020/12/23 10:49:16;;;;;;;43.28;19.75;;;;;;;9.58;89.02;97503.97;5005154;28;20077;-63
2020/12/23 10:51:42;;;;;;;38.90;19.65;;;;;;;9.99;87.13;97495.22;5004574;28;20049;-63
2020/12/23 10:54:07;;;;;;;34.17;17.88;;;;;;;9.75;84.52;97390.28;4996521;28;20030;-63
2020/12/23 10:56:32;;;;;;;37.05;20.35;;;;;;;9.54;86.12;97323.34;4985435;28;20034;-64
2020/12/23 10:58:58;;;;;;;37.70;18.63;;;;;;;9.57;87.76;97483.03;5019222;28;20033;-63
2020/12/23 11:01:23;;;;;;;40.78;18.52;;;;;;;9.27;87.11;97340.78;5002986;28;20022;-63
2020/12/23 11:03:49;;;;;;;37.42;18.73;;;;;;;9.78;85.76;97461.47;5005243;28;20037;-63
2020/12/23 11:06:14;;;;;;;36.10;18.80;;;;;;;10.35;85.38;97536.53;5004737;28;20501;-63
2020/12/23 11:08:43;;;;;;;33.40;17.70;;;;;;;10.37;84.32;97476.06;5004742;28;20080;-63
2020/12/23 11:11:13;;;;;;;38.08;19.45;;;;;;;10.35;84.23;97472.84;5002863;28;20030;-62
2020/12/23 11:13:42;;;;;;;37.47;19.42;;;;;;;10.56;84.14;97476.16;5004563;28;20030;-64
2020/12/23 11:16:16;;;;;;;34.00;18.63;;;;;;;10.45;84.83;97469.53;5003249;28;20049;-62
2020/12/23 11:18:42;;;;;;;36.30;20.15;;;;;;;10.45;83.83;97485.34;5004134;28;20505;-61
2020/12/23 11:21:08;;;;;;;39.72;22.10;;;;;;;10.17;85.56;97468.84;5002088;28;20053;-62
2020/12/23 11:23:34;;;;;;;46.95;22.50;;;;;;;9.52;89.07;97474.97;5004025;28;20034;-62